sensor_id;sensor_type;location;lat;lon;timestamp;pressure;altitude;pressure_sealevel;temperature
24639;BMP180;1641;51.306;12.384;2023-10-13T00:00:29;100012.00;;;19.10
24639;BMP180;1641;51.306;12.384;2023-10-13T00:03:06;100046.00;;;19.10
24639;BMP180;1641;51.306;12.384;2023-10-13T00:05:34;100041.00;;;19.00
24639;BMP180;1641;51.306;12.384;2023-10-13T00:08:01;100034.00;;;19.10
24639;BMP180;1641;51.306;12.384;2023-10-13T00:10:28;100039.00;;;19.00
24639;BMP180;1641;51.306;12.384;2023-10-13T00:12:53;100036.00;;;19.00
24639;BMP180;1641;51.306;12.384;2023-10-13T00:15:18;100006.00;;;19.00
24639;BMP180;1641;51.306;12.384;2023-10-13T00:17:53;100037.00;;;18.90
24639;BMP180;1641;51.306;12.384;2023-10-13T00:20:18;100036.00;;;18.90
24639;BMP180;1641;51.306;12.384;2023-10-13T00:23:04;100041.00;;;18.90
24639;BMP180;1641;51.306;12.384;2023-10-13T00:25:31;100019.00;;;19.00
24639;BMP180;1641;51.306;12.384;2023-10-13T00:28:09;100035.00;;;19.00
24639;BMP180;1641;51.306;12.384;2023-10-13T00:30:34;100020.00;;;19.00
24639;BMP180;1641;51.306;12.384;2023-10-13T00:33:00;100025.00;;;18.90
24639;BMP180;1641;51.306;12.384;2023-10-13T00:35:29;99998.00;;;18.70
24639;BMP180;1641;51.306;12.384;2023-10-13T00:38:02;100029.00;;;18.60
24639;BMP180;1641;51.306;12.384;2023-10-13T00:40:39;100032.00;;;18.60
24639;BMP180;1641;51.306;12.384;2023-10-13T00:43:05;100036.00;;;18.50
24639;BMP180;1641;51.306;12.384;2023-10-13T00:45:51;100020.00;;;18.50
24639;BMP180;1641;51.306;12.384;2023-10-13T00:48:30;100024.00;;;18.60
24639;BMP180;1641;51.306;12.384;2023-10-13T00:51:09;100024.00;;;18.50
24639;BMP180;1641;51.306;12.384;2023-10-13T00:53:54;100022.00;;;18.40
24639;BMP180;1641;51.306;12.384;2023-10-13T00:56:22;100014.00;;;18.50
24639;BMP180;1641;51.306;12.384;2023-10-13T00:58:53;100006.00;;;18.40
24639;BMP180;1641;51.306;12.384;2023-10-13T01:01:22;100010.00;;;18.50
24639;BMP180;1641;51.306;12.384;2023-10-13T01:03:52;100030.00;;;18.60
24639;BMP180;1641;51.306;12.384;2023-10-13T01:06:22;100033.00;;;18.50
24639;BMP180;1641;51.306;12.384;2023-10-13T01:08:57;100040.00;;;18.70
24639;BMP180;1641;51.306;12.384;2023-10-13T01:11:22;100046.00;;;18.60
24639;BMP180;1641;51.306;12.384;2023-10-13T01:13:49;100031.00;;;18.70
24639;BMP180;1641;51.306;12.384;2023-10-13T01:16:17;100044.00;;;18.70
24639;BMP180;1641;51.306;12.384;2023-10-13T01:18:43;100052.00;;;18.70
24639;BMP180;1641;51.306;12.384;2023-10-13T01:21:17;100054.00;;;18.60
24639;BMP180;1641;51.306;12.384;2023-10-13T01:23:46;100045.00;;;18.70
24639;BMP180;1641;51.306;12.384;2023-10-13T01:26:13;100041.00;;;18.70
24639;BMP180;1641;51.306;12.384;2023-10-13T01:28:57;100039.00;;;18.70
24639;BMP180;1641;51.306;12.384;2023-10-13T01:31:22;100046.00;;;18.70
24639;BMP180;1641;51.306;12.384;2023-10-13T01:33:55;100045.00;;;18.80
24639;BMP180;1641;51.306;12.384;2023-10-13T01:36:24;100045.00;;;18.70
24639;BMP180;1641;51.306;12.384;2023-10-13T01:38:50;100040.00;;;18.90
24639;BMP180;1641;51.306;12.384;2023-10-13T01:41:16;100039.00;;;18.90
24639;BMP180;1641;51.306;12.384;2023-10-13T01:43:41;100037.00;;;18.90
24639;BMP180;1641;51.306;12.384;2023-10-13T01:46:07;100043.00;;;18.90
24639;BMP180;1641;51.306;12.384;2023-10-13T01:48:34;100036.00;;;18.90
24639;BMP180;1641;51.306;12.384;2023-10-13T01:51:04;100027.00;;;18.80
24639;BMP180;1641;51.306;12.384;2023-10-13T01:53:31;100030.00;;;18.70
24639;BMP180;1641;51.306;12.384;2023-10-13T01:55:56;100028.00;;;18.60
24639;BMP180;1641;51.306;12.384;2023-10-13T01:58:24;100024.00;;;18.60
24639;BMP180;1641;51.306;12.384;2023-10-13T02:00:51;100023.00;;;18.80
24639;BMP180;1641;51.306;12.384;2023-10-13T02:03:17;100013.00;;;18.80
24639;BMP180;1641;51.306;12.384;2023-10-13T02:08:12;100023.00;;;18.70
24639;BMP180;1641;51.306;12.384;2023-10-13T02:10:43;100034.00;;;18.70
24639;BMP180;1641;51.306;12.384;2023-10-13T02:13:13;100029.00;;;18.60
24639;BMP180;1641;51.306;12.384;2023-10-13T02:15:44;100020.00;;;18.50
24639;BMP180;1641;51.306;12.384;2023-10-13T02:18:12;99988.00;;;18.50
24639;BMP180;1641;51.306;12.384;2023-10-13T02:20:38;100005.00;;;18.50
24639;BMP180;1641;51.306;12.384;2023-10-13T02:23:11;100010.00;;;18.40
24639;BMP180;1641;51.306;12.384;2023-10-13T02:25:36;100004.00;;;18.30
24639;BMP180;1641;51.306;12.384;2023-10-13T02:28:09;100010.00;;;18.40
24639;BMP180;1641;51.306;12.384;2023-10-13T02:30:42;100010.00;;;18.40
24639;BMP180;1641;51.306;12.384;2023-10-13T02:33:14;99987.00;;;18.30
24639;BMP180;1641;51.306;12.384;2023-10-13T02:35:40;99994.00;;;18.30
24639;BMP180;1641;51.306;12.384;2023-10-13T02:38:23;99986.00;;;18.30
24639;BMP180;1641;51.306;12.384;2023-10-13T02:40:57;100002.00;;;18.30
24639;BMP180;1641;51.306;12.384;2023-10-13T02:43:30;99968.00;;;18.30
24639;BMP180;1641;51.306;12.384;2023-10-13T02:45:58;99981.00;;;18.20
24639;BMP180;1641;51.306;12.384;2023-10-13T02:48:25;99986.00;;;18.10
24639;BMP180;1641;51.306;12.384;2023-10-13T02:51:08;99973.00;;;18.00
24639;BMP180;1641;51.306;12.384;2023-10-13T02:53:46;99975.00;;;18.10
24639;BMP180;1641;51.306;12.384;2023-10-13T02:56:15;99975.00;;;18.20
24639;BMP180;1641;51.306;12.384;2023-10-13T02:58:47;99971.00;;;18.10
24639;BMP180;1641;51.306;12.384;2023-10-13T03:01:19;99969.00;;;17.90
24639;BMP180;1641;51.306;12.384;2023-10-13T03:03:50;99939.00;;;17.80
24639;BMP180;1641;51.306;12.384;2023-10-13T03:06:17;99968.00;;;17.90
24639;BMP180;1641;51.306;12.384;2023-10-13T03:08:44;99968.00;;;18.00
24639;BMP180;1641;51.306;12.384;2023-10-13T03:11:10;99968.00;;;18.10
24639;BMP180;1641;51.306;12.384;2023-10-13T03:13:36;99968.00;;;18.10
24639;BMP180;1641;51.306;12.384;2023-10-13T03:16:11;99930.00;;;18.10
24639;BMP180;1641;51.306;12.384;2023-10-13T03:18:36;99978.00;;;18.20
24639;BMP180;1641;51.306;12.384;2023-10-13T03:21:03;99976.00;;;18.30
24639;BMP180;1641;51.306;12.384;2023-10-13T03:23:28;99968.00;;;18.20
24639;BMP180;1641;51.306;12.384;2023-10-13T03:26:01;99972.00;;;17.90
24639;BMP180;1641;51.306;12.384;2023-10-13T03:28:33;99971.00;;;17.80
24639;BMP180;1641;51.306;12.384;2023-10-13T03:30:59;99966.00;;;17.70
24639;BMP180;1641;51.306;12.384;2023-10-13T03:33:26;99959.00;;;17.90
24639;BMP180;1641;51.306;12.384;2023-10-13T03:35:51;99903.00;;;17.80
24639;BMP180;1641;51.306;12.384;2023-10-13T03:38:31;99954.00;;;17.90
24639;BMP180;1641;51.306;12.384;2023-10-13T03:41:01;99950.00;;;18.00
24639;BMP180;1641;51.306;12.384;2023-10-13T03:43:37;99949.00;;;18.00
24639;BMP180;1641;51.306;12.384;2023-10-13T03:46:31;99949.00;;;17.90
24639;BMP180;1641;51.306;12.384;2023-10-13T03:48:58;99944.00;;;18.00
24639;BMP180;1641;51.306;12.384;2023-10-13T03:51:26;99943.00;;;17.90
24639;BMP180;1641;51.306;12.384;2023-10-13T03:53:56;99952.00;;;18.10
24639;BMP180;1641;51.306;12.384;2023-10-13T03:56:23;99951.00;;;18.20
24639;BMP180;1641;51.306;12.384;2023-10-13T03:58:53;99949.00;;;18.20
24639;BMP180;1641;51.306;12.384;2023-10-13T04:01:22;99893.00;;;18.40
24639;BMP180;1641;51.306;12.384;2023-10-13T04:03:58;99938.00;;;18.40
24639;BMP180;1641;51.306;12.384;2023-10-13T04:06:44;99922.00;;;18.40
24639;BMP180;1641;51.306;12.384;2023-10-13T04:09:20;99936.00;;;18.40
24639;BMP180;1641;51.306;12.384;2023-10-13T04:11:58;99933.00;;;18.40
24639;BMP180;1641;51.306;12.384;2023-10-13T04:14:26;99938.00;;;18.40
24639;BMP180;1641;51.306;12.384;2023-10-13T04:17:07;99938.00;;;18.40
24639;BMP180;1641;51.306;12.384;2023-10-13T04:19:39;99932.00;;;18.40
24639;BMP180;1641;51.306;12.384;2023-10-13T04:22:25;99925.00;;;18.40
24639;BMP180;1641;51.306;12.384;2023-10-13T04:25:12;99897.00;;;18.50
24639;BMP180;1641;51.306;12.384;2023-10-13T04:28:01;99919.00;;;18.30
24639;BMP180;1641;51.306;12.384;2023-10-13T04:30:51;99918.00;;;18.30
24639;BMP180;1641;51.306;12.384;2023-10-13T04:36:01;99910.00;;;18.30
24639;BMP180;1641;51.306;12.384;2023-10-13T04:38:37;99860.00;;;18.40
24639;BMP180;1641;51.306;12.384;2023-10-13T04:41:20;99868.00;;;18.50
24639;BMP180;1641;51.306;12.384;2023-10-13T04:43:50;99893.00;;;18.50
24639;BMP180;1641;51.306;12.384;2023-10-13T04:46:21;99892.00;;;18.30
24639;BMP180;1641;51.306;12.384;2023-10-13T04:49:05;99905.00;;;18.30
24639;BMP180;1641;51.306;12.384;2023-10-13T04:51:53;99900.00;;;18.20
24639;BMP180;1641;51.306;12.384;2023-10-13T04:54:28;99910.00;;;18.30
24639;BMP180;1641;51.306;12.384;2023-10-13T04:57:17;99891.00;;;18.40
24639;BMP180;1641;51.306;12.384;2023-10-13T04:59:53;99891.00;;;18.20
24639;BMP180;1641;51.306;12.384;2023-10-13T05:02:41;99891.00;;;18.20
24639;BMP180;1641;51.306;12.384;2023-10-13T05:05:14;99922.00;;;18.40
24639;BMP180;1641;51.306;12.384;2023-10-13T05:07:40;99922.00;;;18.30
24639;BMP180;1641;51.306;12.384;2023-10-13T05:10:24;99910.00;;;17.90
24639;BMP180;1641;51.306;12.384;2023-10-13T05:13:08;99917.00;;;18.00
24639;BMP180;1641;51.306;12.384;2023-10-13T05:15:52;99906.00;;;18.00
24639;BMP180;1641;51.306;12.384;2023-10-13T05:18:36;99914.00;;;18.00
24639;BMP180;1641;51.306;12.384;2023-10-13T05:21:20;99912.00;;;18.10
24639;BMP180;1641;51.306;12.384;2023-10-13T05:24:05;99909.00;;;18.00
24639;BMP180;1641;51.306;12.384;2023-10-13T05:26:49;99880.00;;;18.20
24639;BMP180;1641;51.306;12.384;2023-10-13T05:29:33;99909.00;;;18.20
24639;BMP180;1641;51.306;12.384;2023-10-13T05:32:30;99888.00;;;18.20
24639;BMP180;1641;51.306;12.384;2023-10-13T05:35:17;99892.00;;;18.20
24639;BMP180;1641;51.306;12.384;2023-10-13T05:38:01;99870.00;;;18.10
24639;BMP180;1641;51.306;12.384;2023-10-13T05:40:59;99902.00;;;18.20
24639;BMP180;1641;51.306;12.384;2023-10-13T05:43:43;99907.00;;;18.30
24639;BMP180;1641;51.306;12.384;2023-10-13T05:46:27;99904.00;;;18.20
24639;BMP180;1641;51.306;12.384;2023-10-13T05:48:55;99896.00;;;18.00
24639;BMP180;1641;51.306;12.384;2023-10-13T05:51:25;99893.00;;;18.10
24639;BMP180;1641;51.306;12.384;2023-10-13T05:54:11;99898.00;;;18.20
24639;BMP180;1641;51.306;12.384;2023-10-13T05:56:43;99905.00;;;18.50
24639;BMP180;1641;51.306;12.384;2023-10-13T05:59:37;99904.00;;;18.60
24639;BMP180;1641;51.306;12.384;2023-10-13T06:02:23;99920.00;;;18.30
24639;BMP180;1641;51.306;12.384;2023-10-13T06:05:11;99905.00;;;18.40
24639;BMP180;1641;51.306;12.384;2023-10-13T06:07:56;99880.00;;;18.30
24639;BMP180;1641;51.306;12.384;2023-10-13T06:10:41;99898.00;;;18.40
24639;BMP180;1641;51.306;12.384;2023-10-13T06:13:25;99880.00;;;18.50
24639;BMP180;1641;51.306;12.384;2023-10-13T06:16:14;99892.00;;;18.50
24639;BMP180;1641;51.306;12.384;2023-10-13T06:18:58;99908.00;;;18.70
24639;BMP180;1641;51.306;12.384;2023-10-13T06:21:43;99902.00;;;18.60
24639;BMP180;1641;51.306;12.384;2023-10-13T06:24:27;99904.00;;;18.60
24639;BMP180;1641;51.306;12.384;2023-10-13T06:27:15;99890.00;;;18.70
24639;BMP180;1641;51.306;12.384;2023-10-13T06:30:02;99895.00;;;18.70
24639;BMP180;1641;51.306;12.384;2023-10-13T06:32:30;99878.00;;;18.90
24639;BMP180;1641;51.306;12.384;2023-10-13T06:34:56;99895.00;;;19.00
24639;BMP180;1641;51.306;12.384;2023-10-13T06:37:32;99886.00;;;19.20
24639;BMP180;1641;51.306;12.384;2023-10-13T06:40:00;99879.00;;;19.10
24639;BMP180;1641;51.306;12.384;2023-10-13T06:42:32;99879.00;;;19.20
24639;BMP180;1641;51.306;12.384;2023-10-13T06:45:00;99884.00;;;19.20
24639;BMP180;1641;51.306;12.384;2023-10-13T06:47:36;99839.00;;;19.30
24639;BMP180;1641;51.306;12.384;2023-10-13T06:50:15;99885.00;;;19.20
24639;BMP180;1641;51.306;12.384;2023-10-13T06:52:45;99810.00;;;19.20
24639;BMP180;1641;51.306;12.384;2023-10-13T06:55:13;99874.00;;;19.30
24639;BMP180;1641;51.306;12.384;2023-10-13T06:57:43;99864.00;;;19.30
24639;BMP180;1641;51.306;12.384;2023-10-13T07:00:10;99854.00;;;19.50
24639;BMP180;1641;51.306;12.384;2023-10-13T07:02:47;99878.00;;;19.70
24639;BMP180;1641;51.306;12.384;2023-10-13T07:05:13;99857.00;;;19.80
24639;BMP180;1641;51.306;12.384;2023-10-13T07:07:40;99887.00;;;20.00
24639;BMP180;1641;51.306;12.384;2023-10-13T07:10:09;99884.00;;;19.90
24639;BMP180;1641;51.306;12.384;2023-10-13T07:12:38;99879.00;;;20.00
24639;BMP180;1641;51.306;12.384;2023-10-13T07:15:08;99879.00;;;20.10
24639;BMP180;1641;51.306;12.384;2023-10-13T07:17:47;99875.00;;;20.10
24639;BMP180;1641;51.306;12.384;2023-10-13T07:20:19;99867.00;;;20.10
24639;BMP180;1641;51.306;12.384;2023-10-13T07:22:54;99869.00;;;20.10
24639;BMP180;1641;51.306;12.384;2023-10-13T07:25:33;99822.00;;;20.10
24639;BMP180;1641;51.306;12.384;2023-10-13T07:28:04;99861.00;;;20.10
24639;BMP180;1641;51.306;12.384;2023-10-13T07:30:33;99853.00;;;20.20
24639;BMP180;1641;51.306;12.384;2023-10-13T07:33:10;99854.00;;;20.40
24639;BMP180;1641;51.306;12.384;2023-10-13T07:35:38;99858.00;;;20.40
24639;BMP180;1641;51.306;12.384;2023-10-13T07:38:03;99851.00;;;20.60
24639;BMP180;1641;51.306;12.384;2023-10-13T07:40:32;99848.00;;;20.50
24639;BMP180;1641;51.306;12.384;2023-10-13T07:43:01;99844.00;;;20.30
24639;BMP180;1641;51.306;12.384;2023-10-13T07:45:28;99847.00;;;20.40
24639;BMP180;1641;51.306;12.384;2023-10-13T07:48:05;99856.00;;;20.50
24639;BMP180;1641;51.306;12.384;2023-10-13T07:51:03;99856.00;;;20.40
24639;BMP180;1641;51.306;12.384;2023-10-13T07:53:32;99845.00;;;20.50
24639;BMP180;1641;51.306;12.384;2023-10-13T07:56:01;99850.00;;;20.50
24639;BMP180;1641;51.306;12.384;2023-10-13T07:58:34;99845.00;;;20.70
24639;BMP180;1641;51.306;12.384;2023-10-13T08:01:00;99836.00;;;20.70
24639;BMP180;1641;51.306;12.384;2023-10-13T08:03:42;99834.00;;;20.70
24639;BMP180;1641;51.306;12.384;2023-10-13T08:06:16;99801.00;;;20.80
24639;BMP180;1641;51.306;12.384;2023-10-13T08:08:42;99808.00;;;20.90
24639;BMP180;1641;51.306;12.384;2023-10-13T08:11:16;99812.00;;;21.00
24639;BMP180;1641;51.306;12.384;2023-10-13T08:13:55;99833.00;;;21.00
24639;BMP180;1641;51.306;12.384;2023-10-13T08:16:31;99840.00;;;21.30
24639;BMP180;1641;51.306;12.384;2023-10-13T08:19:16;99839.00;;;21.30
24639;BMP180;1641;51.306;12.384;2023-10-13T08:21:47;99818.00;;;21.10
24639;BMP180;1641;51.306;12.384;2023-10-13T08:24:26;99821.00;;;21.20
24639;BMP180;1641;51.306;12.384;2023-10-13T08:27:19;99823.00;;;21.20
24639;BMP180;1641;51.306;12.384;2023-10-13T08:30:01;99810.00;;;21.10
24639;BMP180;1641;51.306;12.384;2023-10-13T08:32:28;99825.00;;;21.10
24639;BMP180;1641;51.306;12.384;2023-10-13T08:34:54;99809.00;;;21.10
24639;BMP180;1641;51.306;12.384;2023-10-13T08:37:21;99822.00;;;21.10
24639;BMP180;1641;51.306;12.384;2023-10-13T08:39:47;99792.00;;;21.20
24639;BMP180;1641;51.306;12.384;2023-10-13T08:42:32;99778.00;;;21.10
24639;BMP180;1641;51.306;12.384;2023-10-13T08:45:06;99799.00;;;21.30
24639;BMP180;1641;51.306;12.384;2023-10-13T08:47:55;99802.00;;;21.30
24639;BMP180;1641;51.306;12.384;2023-10-13T08:53:18;99810.00;;;21.20
24639;BMP180;1641;51.306;12.384;2023-10-13T08:58:36;99808.00;;;21.30
24639;BMP180;1641;51.306;12.384;2023-10-13T09:04:12;99768.00;;;21.50
24639;BMP180;1641;51.306;12.384;2023-10-13T09:06:52;99786.00;;;21.30
24639;BMP180;1641;51.306;12.384;2023-10-13T09:12:16;99794.00;;;21.70
24639;BMP180;1641;51.306;12.384;2023-10-13T09:14:57;99786.00;;;21.70
24639;BMP180;1641;51.306;12.384;2023-10-13T09:17:27;99783.00;;;21.70
24639;BMP180;1641;51.306;12.384;2023-10-13T09:20:04;99788.00;;;21.60
24639;BMP180;1641;51.306;12.384;2023-10-13T09:22:55;99776.00;;;21.40
24639;BMP180;1641;51.306;12.384;2023-10-13T09:25:33;99777.00;;;21.70
24639;BMP180;1641;51.306;12.384;2023-10-13T09:28:10;99766.00;;;21.70
24639;BMP180;1641;51.306;12.384;2023-10-13T09:30:47;99776.00;;;21.70
24639;BMP180;1641;51.306;12.384;2023-10-13T09:33:13;99774.00;;;21.70
24639;BMP180;1641;51.306;12.384;2023-10-13T09:35:44;99772.00;;;21.60
24639;BMP180;1641;51.306;12.384;2023-10-13T09:38:19;99770.00;;;21.80
24639;BMP180;1641;51.306;12.384;2023-10-13T09:40:46;99764.00;;;21.70
24639;BMP180;1641;51.306;12.384;2023-10-13T09:43:18;99768.00;;;21.70
24639;BMP180;1641;51.306;12.384;2023-10-13T09:45:46;99761.00;;;21.80
24639;BMP180;1641;51.306;12.384;2023-10-13T09:48:39;99767.00;;;22.10
24639;BMP180;1641;51.306;12.384;2023-10-13T09:51:13;99763.00;;;21.90
24639;BMP180;1641;51.306;12.384;2023-10-13T09:53:41;99764.00;;;22.20
24639;BMP180;1641;51.306;12.384;2023-10-13T09:56:25;99697.00;;;22.20
24639;BMP180;1641;51.306;12.384;2023-10-13T09:59:10;99758.00;;;21.90
24639;BMP180;1641;51.306;12.384;2023-10-13T10:01:42;99756.00;;;21.80
24639;BMP180;1641;51.306;12.384;2023-10-13T10:04:22;99728.00;;;21.90
24639;BMP180;1641;51.306;12.384;2023-10-13T10:06:58;99750.00;;;22.00
24639;BMP180;1641;51.306;12.384;2023-10-13T10:09:29;99746.00;;;22.40
24639;BMP180;1641;51.306;12.384;2023-10-13T10:12:19;99741.00;;;22.50
24639;BMP180;1641;51.306;12.384;2023-10-13T10:15:07;99749.00;;;22.40
24639;BMP180;1641;51.306;12.384;2023-10-13T10:17:45;99751.00;;;22.60
24639;BMP180;1641;51.306;12.384;2023-10-13T10:20:11;99685.00;;;22.80
24639;BMP180;1641;51.306;12.384;2023-10-13T10:22:57;99743.00;;;22.90
24639;BMP180;1641;51.306;12.384;2023-10-13T10:25:33;99732.00;;;22.90
24639;BMP180;1641;51.306;12.384;2023-10-13T10:28:05;99656.00;;;22.90
24639;BMP180;1641;51.306;12.384;2023-10-13T10:30:33;99699.00;;;22.70
24639;BMP180;1641;51.306;12.384;2023-10-13T10:33:00;99715.00;;;22.50
24639;BMP180;1641;51.306;12.384;2023-10-13T10:35:26;99711.00;;;22.50
24639;BMP180;1641;51.306;12.384;2023-10-13T10:38:18;99700.00;;;22.70
24639;BMP180;1641;51.306;12.384;2023-10-13T10:41:03;99702.00;;;22.50
24639;BMP180;1641;51.306;12.384;2023-10-13T10:43:37;99698.00;;;22.40
24639;BMP180;1641;51.306;12.384;2023-10-13T10:46:13;99695.00;;;22.40
24639;BMP180;1641;51.306;12.384;2023-10-13T10:48:38;99690.00;;;22.60
24639;BMP180;1641;51.306;12.384;2023-10-13T10:51:08;99690.00;;;22.60
24639;BMP180;1641;51.306;12.384;2023-10-13T10:54:00;99676.00;;;22.60
24639;BMP180;1641;51.306;12.384;2023-10-13T10:56:37;99686.00;;;22.60
24639;BMP180;1641;51.306;12.384;2023-10-13T10:59:04;99662.00;;;22.80
24639;BMP180;1641;51.306;12.384;2023-10-13T11:01:31;99659.00;;;22.80
24639;BMP180;1641;51.306;12.384;2023-10-13T11:04:12;99667.00;;;23.10
24639;BMP180;1641;51.306;12.384;2023-10-13T11:06:51;99646.00;;;23.50
24639;BMP180;1641;51.306;12.384;2023-10-13T11:09:27;99658.00;;;23.60
24639;BMP180;1641;51.306;12.384;2023-10-13T11:12:12;99649.00;;;23.50
24639;BMP180;1641;51.306;12.384;2023-10-13T11:14:43;99659.00;;;23.60
24639;BMP180;1641;51.306;12.384;2023-10-13T11:17:19;99656.00;;;23.70
24639;BMP180;1641;51.306;12.384;2023-10-13T11:19:49;99636.00;;;23.90
24639;BMP180;1641;51.306;12.384;2023-10-13T11:22:21;99638.00;;;24.20
24639;BMP180;1641;51.306;12.384;2023-10-13T11:25:08;99634.00;;;24.30
24639;BMP180;1641;51.306;12.384;2023-10-13T11:27:37;99627.00;;;24.30
24639;BMP180;1641;51.306;12.384;2023-10-13T11:30:15;99628.00;;;24.30
24639;BMP180;1641;51.306;12.384;2023-10-13T11:32:45;99615.00;;;24.40
24639;BMP180;1641;51.306;12.384;2023-10-13T11:35:12;99625.00;;;24.40
24639;BMP180;1641;51.306;12.384;2023-10-13T11:38:00;99605.00;;;24.90
24639;BMP180;1641;51.306;12.384;2023-10-13T11:40:36;99609.00;;;24.60
24639;BMP180;1641;51.306;12.384;2023-10-13T11:43:08;99615.00;;;24.10
24639;BMP180;1641;51.306;12.384;2023-10-13T11:45:47;99613.00;;;24.40
24639;BMP180;1641;51.306;12.384;2023-10-13T11:48:22;99614.00;;;24.50
24639;BMP180;1641;51.306;12.384;2023-10-13T11:51:06;99603.00;;;24.80
24639;BMP180;1641;51.306;12.384;2023-10-13T11:54:04;99592.00;;;25.00
24639;BMP180;1641;51.306;12.384;2023-10-13T11:56:29;99601.00;;;24.60
24639;BMP180;1641;51.306;12.384;2023-10-13T11:58:55;99604.00;;;24.10
24639;BMP180;1641;51.306;12.384;2023-10-13T12:01:26;99596.00;;;24.20
24639;BMP180;1641;51.306;12.384;2023-10-13T12:04:11;99593.00;;;24.50
24639;BMP180;1641;51.306;12.384;2023-10-13T12:06:55;99569.00;;;24.50
24639;BMP180;1641;51.306;12.384;2023-10-13T12:09:56;99580.00;;;24.30
24639;BMP180;1641;51.306;12.384;2023-10-13T12:12:22;99575.00;;;24.40
24639;BMP180;1641;51.306;12.384;2023-10-13T12:14:47;99556.00;;;24.70
24639;BMP180;1641;51.306;12.384;2023-10-13T12:17:24;99564.00;;;24.70
24639;BMP180;1641;51.306;12.384;2023-10-13T12:20:04;99568.00;;;24.60
24639;BMP180;1641;51.306;12.384;2023-10-13T12:22:33;99564.00;;;24.50
24639;BMP180;1641;51.306;12.384;2023-10-13T12:25:10;99565.00;;;24.50
24639;BMP180;1641;51.306;12.384;2023-10-13T12:27:59;99552.00;;;24.90
24639;BMP180;1641;51.306;12.384;2023-10-13T12:30:48;99554.00;;;24.70
24639;BMP180;1641;51.306;12.384;2023-10-13T12:33:14;99552.00;;;25.00
24639;BMP180;1641;51.306;12.384;2023-10-13T12:35:42;99540.00;;;25.00
24639;BMP180;1641;51.306;12.384;2023-10-13T12:38:24;99542.00;;;25.20
24639;BMP180;1641;51.306;12.384;2023-10-13T12:41:08;99509.00;;;25.10
24639;BMP180;1641;51.306;12.384;2023-10-13T12:43:52;99537.00;;;25.10
24639;BMP180;1641;51.306;12.384;2023-10-13T12:46:36;99518.00;;;25.40
24639;BMP180;1641;51.306;12.384;2023-10-13T12:49:23;99521.00;;;25.50
24639;BMP180;1641;51.306;12.384;2023-10-13T12:52:07;99511.00;;;25.80
24639;BMP180;1641;51.306;12.384;2023-10-13T12:54:45;99514.00;;;25.10
24639;BMP180;1641;51.306;12.384;2023-10-13T12:57:27;99495.00;;;25.20
24639;BMP180;1641;51.306;12.384;2023-10-13T12:59:53;99505.00;;;25.30
24639;BMP180;1641;51.306;12.384;2023-10-13T13:02:23;99499.00;;;25.60
24639;BMP180;1641;51.306;12.384;2023-10-13T13:04:53;99507.00;;;25.80
24639;BMP180;1641;51.306;12.384;2023-10-13T13:07:32;99501.00;;;26.10
24639;BMP180;1641;51.306;12.384;2023-10-13T13:10:08;99489.00;;;25.70
24639;BMP180;1641;51.306;12.384;2023-10-13T13:12:41;99440.00;;;26.10
24639;BMP180;1641;51.306;12.384;2023-10-13T13:15:10;99483.00;;;26.20
24639;BMP180;1641;51.306;12.384;2023-10-13T13:17:37;99493.00;;;26.30
24639;BMP180;1641;51.306;12.384;2023-10-13T13:20:05;99463.00;;;26.20
24639;BMP180;1641;51.306;12.384;2023-10-13T13:22:39;99491.00;;;26.50
24639;BMP180;1641;51.306;12.384;2023-10-13T13:25:07;99496.00;;;26.60
24639;BMP180;1641;51.306;12.384;2023-10-13T13:27:34;99484.00;;;26.60
24639;BMP180;1641;51.306;12.384;2023-10-13T13:30:00;99478.00;;;26.20
24639;BMP180;1641;51.306;12.384;2023-10-13T13:32:26;99482.00;;;26.10
24639;BMP180;1641;51.306;12.384;2023-10-13T13:34:53;99477.00;;;26.10
24639;BMP180;1641;51.306;12.384;2023-10-13T13:37:21;99453.00;;;26.20
24639;BMP180;1641;51.306;12.384;2023-10-13T13:39:46;99463.00;;;26.30
24639;BMP180;1641;51.306;12.384;2023-10-13T13:42:12;99469.00;;;26.30
24639;BMP180;1641;51.306;12.384;2023-10-13T13:44:45;99475.00;;;26.40
24639;BMP180;1641;51.306;12.384;2023-10-13T13:47:16;99475.00;;;26.00
24639;BMP180;1641;51.306;12.384;2023-10-13T13:49:45;99478.00;;;26.50
24639;BMP180;1641;51.306;12.384;2023-10-13T13:52:19;99476.00;;;26.20
24639;BMP180;1641;51.306;12.384;2023-10-13T13:54:53;99469.00;;;26.20
24639;BMP180;1641;51.306;12.384;2023-10-13T13:57:18;99465.00;;;26.20
24639;BMP180;1641;51.306;12.384;2023-10-13T13:59:43;99462.00;;;26.00
24639;BMP180;1641;51.306;12.384;2023-10-13T14:02:13;99454.00;;;25.80
24639;BMP180;1641;51.306;12.384;2023-10-13T14:04:46;99444.00;;;25.90
24639;BMP180;1641;51.306;12.384;2023-10-13T14:07:13;99442.00;;;26.10
24639;BMP180;1641;51.306;12.384;2023-10-13T14:09:40;99423.00;;;25.80
24639;BMP180;1641;51.306;12.384;2023-10-13T14:12:08;99444.00;;;25.70
24639;BMP180;1641;51.306;12.384;2023-10-13T14:14:56;99438.00;;;25.90
24639;BMP180;1641;51.306;12.384;2023-10-13T14:17:24;99435.00;;;26.00
24639;BMP180;1641;51.306;12.384;2023-10-13T14:19:54;99432.00;;;25.80
24639;BMP180;1641;51.306;12.384;2023-10-13T14:22:20;99433.00;;;25.80
24639;BMP180;1641;51.306;12.384;2023-10-13T14:24:50;99396.00;;;25.40
24639;BMP180;1641;51.306;12.384;2023-10-13T14:27:20;99421.00;;;25.40
24639;BMP180;1641;51.306;12.384;2023-10-13T14:29:49;99400.00;;;25.80
24639;BMP180;1641;51.306;12.384;2023-10-13T14:32:19;99423.00;;;25.90
24639;BMP180;1641;51.306;12.384;2023-10-13T14:34:46;99431.00;;;25.70
24639;BMP180;1641;51.306;12.384;2023-10-13T14:37:16;99418.00;;;25.60
24639;BMP180;1641;51.306;12.384;2023-10-13T14:39:54;99417.00;;;25.60
24639;BMP180;1641;51.306;12.384;2023-10-13T14:42:26;99413.00;;;25.50
24639;BMP180;1641;51.306;12.384;2023-10-13T14:44:52;99363.00;;;25.30
24639;BMP180;1641;51.306;12.384;2023-10-13T14:47:24;99383.00;;;25.40
24639;BMP180;1641;51.306;12.384;2023-10-13T14:49:53;99405.00;;;25.20
24639;BMP180;1641;51.306;12.384;2023-10-13T14:52:25;99402.00;;;25.50
24639;BMP180;1641;51.306;12.384;2023-10-13T14:54:50;99409.00;;;25.20
24639;BMP180;1641;51.306;12.384;2023-10-13T14:57:21;99410.00;;;25.10
24639;BMP180;1641;51.306;12.384;2023-10-13T14:59:53;99386.00;;;25.10
24639;BMP180;1641;51.306;12.384;2023-10-13T15:02:19;99401.00;;;25.20